Spirit Of Vi — CFL2070 — position and weather

sailwx.info

Track history (hours):
 
Tides and Currents Weather Stations Pressure Air Temp Water Temp Dewpoint Dewpoint Depression Visibility Wind Speed Wind Dir Waves Ship Positions

Spirit Of Vi

Last reported at 2018-Jul-22 16:30 UTC. Time now 2018-Jul-22 16:28 UTC.
Position N 48°56' W 123°14'.

Length 168 m; draft 5 m.

Type: Ship. MMSI: 316001269.

Date/timePositionNaut miles runAvg speedWind from/ knotsBaromVisibWave heightAir tempDewpointWater temp
2018-Jul-22 16:30N 48°56' W 123°14'612.0
2018-Jul-22 16:00N 49°00' W 123°08'8 8.3
2018-Jul-22 15:00N 48°54' W 123°16'815.4
2018-Jul-22 14:30N 48°47' W 123°21'612.2
2018-Jul-22 14:00N 48°41' W 123°25'0 0.0
2018-Jul-22 13:30N 48°41' W 123°25'0 0.0
2018-Jul-22 13:00N 48°41' W 123°25'0 0.0
2018-Jul-22 12:30N 48°41' W 123°25'0 0.0
2018-Jul-22 11:49N 48°41' W 123°25'0 0.0
2018-Jul-22 11:28N 48°41' W 123°25'0 0.0
2018-Jul-22 10:58N 48°41' W 123°25'0 0.0
2018-Jul-22 10:25N 48°41' W 123°25'0 0.0
2018-Jul-22 09:52N 48°41' W 123°25'0 0.0
2018-Jul-22 09:22N 48°41' W 123°25'0 0.0
2018-Jul-22 08:58N 48°41' W 123°25'0 0.0
2018-Jul-22 08:28N 48°41' W 123°25'0 0.0
2018-Jul-22 07:58N 48°41' W 123°25'0 0.0
2018-Jul-22 07:28N 48°41' W 123°25'0 0.0
2018-Jul-22 06:58N 48°41' W 123°25'0 0.0
2018-Jul-22 06:28N 48°41' W 123°25'0 0.0
2018-Jul-22 05:58N 48°41' W 123°25'0 0.0
2018-Jul-22 05:29N 48°41' W 123°25'613.8
2018-Jul-22 05:00N 48°47' W 123°21'815.4
2018-Jul-22 04:30N 48°55' W 123°17'816.0
2018-Jul-22 04:00N 49°00' W 123°08'0 0.3
2018-Jul-22 03:30N 49°00' W 123°08'1018.2
2018-Jul-22 02:59N 48°53' W 123°18'613.4
2018-Jul-22 02:31N 48°47' W 123°21'612.0
2018-Jul-22 02:00N 48°41' W 123°25'0 0.1
2018-Jul-22 01:30N 48°41' W 123°25'816.1
2018-Jul-22 01:00N 48°49' W 123°20'815.6
2018-Jul-22 00:28N 48°56' W 123°14'610.5
2018-Jul-21 23:56N 49°00' W 123°08'2 4.0
2018-Jul-21 23:30N 48°59' W 123°09'1018.0
2018-Jul-21 22:57N 48°51' W 123°19'714.7
2018-Jul-21 22:30N 48°45' W 123°22'4 8.0
2018-Jul-21 21:59N 48°41' W 123°25'2 4.5
2018-Jul-21 21:30N 48°42' W 123°22'918.9
2018-Jul-21 21:00N 48°52' W 123°21'918.4
2018-Jul-21 20:30N 48°58' W 123°11'3 3.2
2018-Jul-21 19:40N 49°00' W 123°08'0 0.6
2018-Jul-21 19:30N 49°00' W 123°08'918.2
2018-Jul-21 19:00N 48°53' W 123°17'815.5
2018-Jul-21 18:30N 48°46' W 123°21'510.5
2018-Jul-21 18:01N 48°41' W 123°25'0 0.1
2018-Jul-21 17:31N 48°41' W 123°25'815.3
2018-Jul-21 17:00N 48°49' W 123°21'714.6
2018-Jul-21 16:30N 48°55' W 123°15'7 7.1
2018-Jul-21 15:30N 49°00' W 123°08'714.6
2018-Jul-21 15:00N 48°54' W 123°15'714.9
2018-Jul-21 14:30N 48°48' W 123°21'714.6
2018-Jul-21 14:00N 48°41' W 123°25'0 0.2
2018-Jul-21 13:30N 48°41' W 123°25'0 0.0
2018-Jul-21 12:54N 48°41' W 123°25'0 0.0
2018-Jul-21 12:24N 48°41' W 123°25'0 0.0
2018-Jul-21 11:57N 48°41' W 123°25'0 0.0
2018-Jul-21 11:30N 48°41' W 123°25'0 0.0
2018-Jul-21 11:00N 48°41' W 123°25'0 0.0
2018-Jul-21 10:30N 48°41' W 123°25'0 0.0
2018-Jul-21 09:54N 48°41' W 123°25'0 0.0
2018-Jul-21 09:30N 48°41' W 123°25'0 0.0
2018-Jul-21 08:57N 48°41' W 123°25'0 0.0
2018-Jul-21 08:27N 48°41' W 123°25'0 0.0
2018-Jul-21 07:54N 48°41' W 123°25'0 0.0
2018-Jul-21 07:27N 48°41' W 123°25'0 0.0
2018-Jul-21 07:00N 48°41' W 123°25'0 0.0
2018-Jul-21 06:27N 48°41' W 123°25'0 0.0
2018-Jul-21 06:00N 48°41' W 123°25'1 2.6
2018-Jul-21 05:31N 48°42' W 123°23'917.9
2018-Jul-21 05:00N 48°51' W 123°21'815.8
2018-Jul-21 04:30N 48°57' W 123°13'5 9.9
2018-Jul-21 03:59N 49°00' W 123°08'3 6.2
2018-Jul-21 03:30N 48°58' W 123°09'918.3
2018-Jul-21 03:00N 48°51' W 123°20'815.9
2018-Jul-21 02:30N 48°44' W 123°24'3 5.6
2018-Jul-21 02:00N 48°41' W 123°25'3 5.7
2018-Jul-21 01:30N 48°43' W 123°21'917.0
2018-Jul-21 00:59N 48°52' W 123°19'817.0
2018-Jul-21 00:30N 48°58' W 123°11'3 6.5
2018-Jul-20 23:59N 49°00' W 123°08'0 0.3
2018-Jul-20 23:30N 49°00' W 123°08'917.8
2018-Jul-20 22:59N 48°53' W 123°17'713.8
2018-Jul-20 22:30N 48°47' W 123°21'612.5
2018-Jul-20 22:00N 48°41' W 123°25'0 0.0
2018-Jul-20 21:30N 48°41' W 123°25'612.8
2018-Jul-20 21:00N 48°47' W 123°21'916.7
2018-Jul-20 20:30N 48°55' W 123°16'7 8.5
2018-Jul-20 19:38N 49°00' W 123°08'0 0.4
2018-Jul-20 19:27N 49°00' W 123°08'817.3
2018-Jul-20 19:01N 48°55' W 123°15'816.4
2018-Jul-20 18:30N 48°47' W 123°21'612.3
2018-Jul-20 18:00N 48°41' W 123°25'0 0.8
2018-Jul-20 17:30N 48°42' W 123°24'815.7
2018-Jul-20 17:01N 48°49' W 123°21'713.4
2018-Jul-20 16:30N 48°55' W 123°16'715.0
2018-Jul-20 16:00N 49°00' W 123°08'0 0.0
2018-Jul-20 15:29N 49°00' W 123°08'815.8
2018-Jul-20 15:00N 48°54' W 123°15'714.2
2018-Jul-20 14:31N 48°48' W 123°21'714.8
2018-Jul-20 14:00N 48°41' W 123°25'0 0.0
2018-Jul-20 13:28N 48°41' W 123°25'0 0.0
2018-Jul-20 12:58N 48°41' W 123°25'0 0.0
2018-Jul-20 12:28N 48°41' W 123°25'0 0.0
2018-Jul-20 11:58N 48°41' W 123°25'0 0.0
2018-Jul-20 11:28N 48°41' W 123°25'0 0.0
2018-Jul-20 10:58N 48°41' W 123°25'0 0.0
2018-Jul-20 10:22N 48°41' W 123°25'0 0.0
2018-Jul-20 09:58N 48°41' W 123°25'0 0.0
2018-Jul-20 09:28N 48°41' W 123°25'0 0.0
2018-Jul-20 08:58N 48°41' W 123°25'0 0.0
2018-Jul-20 07:58N 48°41' W 123°25'0 0.0
2018-Jul-20 07:28N 48°41' W 123°25'0 0.0
2018-Jul-20 06:58N 48°41' W 123°25'0 0.0
2018-Jul-20 06:28N 48°41' W 123°25'0 0.0
2018-Jul-20 05:58N 48°41' W 123°25'2 4.2
2018-Jul-20 05:30N 48°42' W 123°22'918.7
2018-Jul-20 05:00N 48°51' W 123°21'917.6
2018-Jul-20 04:30N 48°58' W 123°12'4 5.1
2018-Jul-20 03:48N 49°00' W 123°08'516.4
2018-Jul-20 03:30N 48°56' W 123°12'816.8
2018-Jul-20 03:01N 48°51' W 123°21'816.2
2018-Jul-20 02:30N 48°43' W 123°26'2 3.5
2018-Jul-20 02:00N 48°41' W 123°25'4 7.7
2018-Jul-20 01:30N 48°44' W 123°21'814.7
2018-Jul-20 00:59N 48°52' W 123°19'714.7
2018-Jul-20 00:29N 48°58' W 123°12'4 4.6
2018-Jul-19 23:39N 49°00' W 123°08'0 1.4
2018-Jul-19 23:29N 49°00' W 123°08'918.6
2018-Jul-19 23:00N 48°53' W 123°17'715.0
2018-Jul-19 22:30N 48°46' W 123°21'511.0
2018-Jul-19 22:00N 48°41' W 123°25'0 0.6
2018-Jul-19 21:30N 48°42' W 123°24'917.1
2018-Jul-19 21:00N 48°50' W 123°21'917.1
2018-Jul-19 20:29N 48°57' W 123°13'5 9.3
2018-Jul-19 19:59N 49°00' W 123°08'0 0.8
2018-Jul-19 19:29N 49°00' W 123°08'918.3
2018-Jul-19 18:59N 48°53' W 123°17'715.5
2018-Jul-19 18:30N 48°46' W 123°21'510.7
2018-Jul-19 18:00N 48°41' W 123°25'0 0.2
2018-Jul-19 17:30N 48°41' W 123°25'815.2
2018-Jul-19 17:01N 48°49' W 123°21'815.3
2018-Jul-19 16:28N 48°56' W 123°15'6 9.5
2018-Jul-19 15:48N 49°00' W 123°08'0 0.2
2018-Jul-19 15:28N 49°00' W 123°08'816.3
2018-Jul-19 15:00N 48°54' W 123°15'714.9
2018-Jul-19 14:30N 48°48' W 123°21'7 7.1
2018-Jul-19 13:30N 48°41' W 123°25'0 0.0
2018-Jul-19 13:00N 48°41' W 123°25'0 0.0
2018-Jul-19 12:30N 48°41' W 123°25'0 0.0
2018-Jul-19 12:00N 48°41' W 123°25'0 0.0
2018-Jul-19 11:30N 48°41' W 123°25'0 0.0
2018-Jul-19 11:00N 48°41' W 123°25'0 0.0
2018-Jul-19 10:27N 48°41' W 123°25'0 0.0
2018-Jul-19 10:00N 48°41' W 123°25'0 0.0
2018-Jul-19 09:30N 48°41' W 123°25'0 0.0
2018-Jul-19 09:00N 48°41' W 123°25'0 0.0
2018-Jul-19 08:30N 48°41' W 123°25'0 0.0
2018-Jul-19 08:00N 48°41' W 123°25'0 0.0
2018-Jul-19 07:30N 48°41' W 123°25'0 0.0
2018-Jul-19 07:00N 48°41' W 123°25'0 0.0
2018-Jul-19 06:30N 48°41' W 123°25'0 0.0
2018-Jul-19 06:00N 48°41' W 123°25'0 0.1
2018-Jul-19 05:30N 48°41' W 123°25'714.1
2018-Jul-19 05:01N 48°48' W 123°21'714.3
2018-Jul-19 04:30N 48°55' W 123°17'815.3
2018-Jul-19 03:59N 49°00' W 123°08'0 0.1
2018-Jul-19 03:30N 49°00' W 123°08'815.3
2018-Jul-19 03:00N 48°54' W 123°15'815.4
2018-Jul-19 02:30N 48°48' W 123°21'713.6
2018-Jul-19 02:00N 48°41' W 123°25'0 0.6
2018-Jul-19 01:30N 48°41' W 123°24'816.4
2018-Jul-19 01:00N 48°49' W 123°21'713.4
2018-Jul-19 00:30N 48°55' W 123°16'714.1
2018-Jul-19 00:00N 49°00' W 123°08'0 0.1
2018-Jul-18 23:30N 49°00' W 123°08'816.7
2018-Jul-18 23:00N 48°54' W 123°16'815.2
2018-Jul-18 22:30N 48°47' W 123°21'611.7
2018-Jul-18 21:59N 48°41' W 123°25'0 0.0
2018-Jul-18 21:30N 48°41' W 123°25'714.9
2018-Jul-18 21:00N 48°48' W 123°21'816.3
2018-Jul-18 20:30N 48°56' W 123°15'712.8
2018-Jul-18 19:59N 49°00' W 123°08'0 0.1
2018-Jul-18 19:30N 49°00' W 123°08'816.3
2018-Jul-18 19:00N 48°54' W 123°16'714.5
2018-Jul-18 18:30N 48°47' W 123°21'713.3
2018-Jul-18 18:00N 48°41' W 123°25'0 0.7
2018-Jul-18 17:31N 48°42' W 123°24'816.1
2018-Jul-18 17:00N 48°49' W 123°21'815.8
2018-Jul-18 16:30N 48°56' W 123°14'611.5
2018-Jul-18 15:59N 49°00' W 123°08'0 0.0
2018-Jul-18 15:26N 49°00' W 123°08'715.9
2018-Jul-18 15:00N 48°55' W 123°15'816.0
2018-Jul-18 14:30N 48°48' W 123°21'7 7.1
2018-Jul-18 13:30N 48°41' W 123°25'0 0.0
2018-Jul-18 13:00N 48°41' W 123°25'0 0.0
2018-Jul-18 12:29N 48°41' W 123°25'0 0.0
2018-Jul-18 11:59N 48°41' W 123°25'0 0.0
2018-Jul-18 11:29N 48°41' W 123°25'0 0.0
2018-Jul-18 10:29N 48°41' W 123°25'0 0.0
2018-Jul-18 09:59N 48°41' W 123°25'0 0.0
2018-Jul-18 09:29N 48°41' W 123°25'0 0.0
2018-Jul-18 08:59N 48°41' W 123°25'0 0.0
2018-Jul-18 08:29N 48°41' W 123°25'0 0.0
2018-Jul-18 07:59N 48°41' W 123°25'0 0.0
2018-Jul-18 07:29N 48°41' W 123°25'0 0.0
2018-Jul-18 06:59N 48°41' W 123°25'0 0.0
2018-Jul-18 06:29N 48°41' W 123°25'0 0.0
2018-Jul-18 05:59N 48°41' W 123°25'0 0.0
2018-Jul-18 05:31N 48°41' W 123°25'714.1
2018-Jul-18 05:00N 48°48' W 123°20'714.5
2018-Jul-18 04:30N 48°55' W 123°16'815.7
2018-Jul-18 04:00N 49°00' W 123°08'0 0.2
2018-Jul-18 03:30N 49°00' W 123°08'918.2
2018-Jul-18 02:59N 48°53' W 123°17'816.4
2018-Jul-18 02:30N 48°46' W 123°22'5 9.7
2018-Jul-18 02:01N 48°41' W 123°25'3 5.7
2018-Jul-18 01:30N 48°43' W 123°21'917.3
2018-Jul-18 01:00N 48°52' W 123°21'612.3
2018-Jul-18 00:30N 48°57' W 123°16'6 8.5
2018-Jul-17 23:46N 49°00' W 123°08'0 1.0
2018-Jul-17 23:29N 49°00' W 123°08'918.3
2018-Jul-17 22:58N 48°53' W 123°18'612.4
2018-Jul-17 22:30N 48°48' W 123°21'713.5
2018-Jul-17 22:01N 48°41' W 123°25'0 0.0
2018-Jul-17 21:30N 48°41' W 123°25'815.5
2018-Jul-17 21:00N 48°49' W 123°21'816.3
2018-Jul-17 20:29N 48°56' W 123°14'612.2
2018-Jul-17 20:00N 49°00' W 123°08'0 0.0
2018-Jul-17 19:30N 49°00' W 123°08'816.2
2018-Jul-17 19:00N 48°54' W 123°16'714.0
2018-Jul-17 18:30N 48°48' W 123°21'714.1
2018-Jul-17 18:01N 48°41' W 123°25'0 0.0
2018-Jul-17 17:31N 48°41' W 123°25'713.8
2018-Jul-17 17:00N 48°48' W 123°21'816.9
2018-Jul-17 16:30N 48°56' W 123°16'7 7.4
2018-Jul-17 15:34N 49°00' W 123°08'0 0.1
2018-Jul-17 15:29N 49°00' W 123°08'815.7
2018-Jul-17 15:00N 48°54' W 123°15'815.6
2018-Jul-17 14:30N 48°48' W 123°21'713.4
2018-Jul-17 14:01N 48°41' W 123°25'0 0.0
2018-Jul-17 13:28N 48°41' W 123°25'0 0.0
2018-Jul-17 12:58N 48°41' W 123°25'0 0.0
2018-Jul-17 12:28N 48°41' W 123°25'0 0.0
2018-Jul-17 11:58N 48°41' W 123°25'0 0.0
2018-Jul-17 11:28N 48°41' W 123°25'0 0.0
2018-Jul-17 10:58N 48°41' W 123°25'0 0.0
2018-Jul-17 10:28N 48°41' W 123°25'0 0.0
2018-Jul-17 09:49N 48°41' W 123°25'0 0.0
2018-Jul-17 09:28N 48°41' W 123°25'0 0.0
2018-Jul-17 08:58N 48°41' W 123°25'0 0.0
2018-Jul-17 08:28N 48°41' W 123°25'0 0.0
2018-Jul-17 07:58N 48°41' W 123°25'0 0.0
2018-Jul-17 07:25N 48°41' W 123°25'0 0.0
2018-Jul-17 06:58N 48°41' W 123°25'0 0.0
2018-Jul-17 06:28N 48°41' W 123°25'0 0.0
2018-Jul-17 05:58N 48°41' W 123°25'0 0.0
2018-Jul-17 05:28N 48°41' W 123°25'510.1
2018-Jul-17 05:00N 48°45' W 123°21'916.8
2018-Jul-17 04:30N 48°54' W 123°17'918.4
2018-Jul-17 04:00N 49°00' W 123°08'0 0.3
2018-Jul-17 03:30N 49°00' W 123°08'612.6
2018-Jul-17 03:00N 48°55' W 123°14'815.5
2018-Jul-17 02:30N 48°49' W 123°20'816.4
2018-Jul-17 02:00N 48°41' W 123°25'0 0.8
2018-Jul-17 01:29N 48°41' W 123°24'816.7
2018-Jul-17 01:00N 48°49' W 123°21'714.3
2018-Jul-17 00:30N 48°56' W 123°15'7 6.8
2018-Jul-16 23:30N 49°00' W 123°08'918.6
2018-Jul-16 23:00N 48°53' W 123°17'714.5
2018-Jul-16 22:31N 48°46' W 123°21'611.2
2018-Jul-16 22:00N 48°41' W 123°25'1 2.3
2018-Jul-16 21:31N 48°42' W 123°23'1019.1
2018-Jul-16 21:00N 48°51' W 123°21'917.8
2018-Jul-16 20:31N 48°58' W 123°12'4 7.2
2018-Jul-16 19:59N 49°00' W 123°08'1 2.2
2018-Jul-16 19:30N 48°60' W 123°09'1017.8
2018-Jul-16 18:56N 48°52' W 123°19'512.3
2018-Jul-16 18:30N 48°47' W 123°21'611.5
2018-Jul-16 18:00N 48°41' W 123°25'0 0.0
2018-Jul-16 17:30N 48°41' W 123°25'714.9
2018-Jul-16 17:01N 48°48' W 123°20'714.9
2018-Jul-16 16:31N 48°55' W 123°16'714.6
2018-Jul-16 16:00N 49°00' W 123°08'0 0.0
2018-Jul-16 15:30N 49°00' W 123°08'815.2
2018-Jul-16 15:00N 48°54' W 123°15'714.6
2018-Jul-16 14:30N 48°48' W 123°21'714.4
2018-Jul-16 14:01N 48°41' W 123°25'0 0.0
2018-Jul-16 13:31N 48°41' W 123°25'0 0.0
2018-Jul-16 12:58N 48°41' W 123°25'0 0.0
2018-Jul-16 12:28N 48°41' W 123°25'0 0.0
2018-Jul-16 11:58N 48°41' W 123°25'0 0.0
2018-Jul-16 11:25N 48°41' W 123°25'0 0.0
2018-Jul-16 10:58N 48°41' W 123°25'0 0.0
2018-Jul-16 10:28N 48°41' W 123°25'0 0.0
2018-Jul-16 09:58N 48°41' W 123°25'0 0.0
2018-Jul-16 09:28N 48°41' W 123°25'0 0.0
2018-Jul-16 08:58N 48°41' W 123°25'0 0.0
2018-Jul-16 08:28N 48°41' W 123°25'0 0.0
2018-Jul-16 07:58N 48°41' W 123°25'0 0.0
2018-Jul-16 07:28N 48°41' W 123°25'0 0.0
2018-Jul-16 06:58N 48°41' W 123°25'0 0.0
2018-Jul-16 06:28N 48°41' W 123°25'0 0.0
2018-Jul-16 05:58N 48°41' W 123°25'3 6.9
2018-Jul-16 05:31N 48°43' W 123°21'917.0
2018-Jul-16 05:00N 48°52' W 123°19'817.0
2018-Jul-16 04:30N 48°58' W 123°11'3 5.5
2018-Jul-16 04:00N 49°00' W 123°08'4 8.4
2018-Jul-16 03:30N 48°57' W 123°12'816.7
2018-Jul-16 03:00N 48°51' W 123°21'917.1
2018-Jul-16 02:31N 48°43' W 123°21'3 5.4
2018-Jul-16 02:01N 48°41' W 123°25'2 3.6
2018-Jul-16 01:31N 48°42' W 123°22'917.8
2018-Jul-16 01:01N 48°51' W 123°21'815.4
2018-Jul-16 00:30N 48°57' W 123°14'5 9.9
2018-Jul-15 23:58N 49°00' W 123°08'1 1.8
2018-Jul-15 23:30N 48°60' W 123°09'1020.2
2018-Jul-15 23:01N 48°52' W 123°18'917.1
2018-Jul-15 22:29N 48°43' W 123°21'3 6.3
2018-Jul-15 22:00N 48°41' W 123°25'2 4.0
2018-Jul-15 21:30N 48°42' W 123°22'1018.9
2018-Jul-15 21:00N 48°52' W 123°21'816.7
2018-Jul-15 20:30N 48°58' W 123°12'4 7.5
2018-Jul-15 19:59N 49°00' W 123°08'1 1.3
2018-Jul-15 19:30N 48°60' W 123°09'1018.8
2018-Jul-15 19:00N 48°53' W 123°18'713.7
2018-Jul-15 18:30N 48°46' W 123°22'510.7
2018-Jul-15 18:00N 48°41' W 123°25'0 0.0
2018-Jul-15 17:31N 48°41' W 123°25'713.7
2018-Jul-15 16:59N 48°48' W 123°21'817.3
2018-Jul-15 16:30N 48°55' W 123°15'713.5
2018-Jul-15 16:00N 49°00' W 123°08'0 0.1
2018-Jul-15 15:30N 49°00' W 123°08'916.5
2018-Jul-15 14:59N 48°54' W 123°16'714.0
2018-Jul-15 14:28N 48°47' W 123°21'613.7
2018-Jul-15 14:01N 48°41' W 123°25'0 0.0
2018-Jul-15 13:30N 48°41' W 123°25'0 0.0
2018-Jul-15 12:59N 48°41' W 123°25'0 0.0
2018-Jul-15 12:29N 48°41' W 123°25'0 0.0
2018-Jul-15 11:59N 48°41' W 123°25'0 0.0
2018-Jul-15 11:29N 48°41' W 123°25'0 0.0
2018-Jul-15 10:59N 48°41' W 123°25'0 0.0
2018-Jul-15 10:29N 48°41' W 123°25'0 0.0
2018-Jul-15 09:59N 48°41' W 123°25'0 0.0
2018-Jul-15 09:29N 48°41' W 123°25'0 0.0
2018-Jul-15 08:59N 48°41' W 123°25'0 0.0
2018-Jul-15 08:29N 48°41' W 123°25'0 0.0
2018-Jul-15 07:32N 48°41' W 123°25'0 0.0
2018-Jul-15 07:29N 48°41' W 123°25'0 0.0
2018-Jul-15 06:59N 48°41' W 123°25'0 0.0
2018-Jul-15 06:29N 48°41' W 123°25'0 0.0
2018-Jul-15 05:59N 48°41' W 123°25'0 0.0
2018-Jul-15 05:29N 48°41' W 123°25'713.9
2018-Jul-15 05:00N 48°48' W 123°21'917.6
2018-Jul-15 04:30N 48°56' W 123°15'713.3
2018-Jul-15 04:00N 49°00' W 123°08'3 6.7
2018-Jul-15 03:30N 48°58' W 123°11'917.3
2018-Jul-15 03:00N 48°52' W 123°20'917.8
2018-Jul-15 02:30N 48°43' W 123°21'3 5.1
2018-Jul-15 02:00N 48°41' W 123°25'5 9.3
2018-Jul-15 01:31N 48°45' W 123°21'815.1
2018-Jul-15 00:59N 48°53' W 123°18'919.6
2018-Jul-15 00:30N 49°00' W 123°09'1 1.1
2018-Jul-15 00:00N 49°00' W 123°08'714.1
2018-Jul-14 23:30N 48°55' W 123°15'816.1
2018-Jul-14 23:00N 48°48' W 123°20'714.0
2018-Jul-14 22:30N 48°41' W 123°25'0 0.2
2018-Jul-14 22:01N 48°41' W 123°25'815.8
2018-Jul-14 21:31N 48°49' W 123°21'714.4
2018-Jul-14 21:00N 48°55' W 123°16'714.1
2018-Jul-14 20:30N 49°00' W 123°08'0 0.0
2018-Jul-14 20:00N 49°00' W 123°08'3 6.5
2018-Jul-14 19:30N 48°58' W 123°11'917.5
2018-Jul-14 19:00N 48°52' W 123°20'816.0
2018-Jul-14 18:30N 48°44' W 123°24'3 5.4
2018-Jul-14 18:00N 48°41' W 123°25'0 0.3
2018-Jul-14 17:30N 48°41' W 123°25'917.3
2018-Jul-14 17:01N 48°50' W 123°21'917.2
2018-Jul-14 16:30N 48°57' W 123°13'5 9.8
2018-Jul-14 16:00N 49°00' W 123°08'0 0.4
2018-Jul-14 15:31N 49°00' W 123°08'917.2
2018-Jul-14 15:00N 48°53' W 123°16'1313.2
2018-Jul-14 14:01N 48°41' W 123°25'0 0.0
2018-Jul-14 13:31N 48°41' W 123°25'0 0.0
2018-Jul-14 13:01N 48°41' W 123°25'0 0.0
2018-Jul-14 12:30N 48°41' W 123°25'0 0.0
2018-Jul-14 11:54N 48°41' W 123°25'0 0.0
2018-Jul-14 11:30N 48°41' W 123°25'0 0.0
2018-Jul-14 11:00N 48°41' W 123°25'0 0.0
2018-Jul-14 10:30N 48°41' W 123°25'0 0.0
2018-Jul-14 09:57N 48°41' W 123°25'0 0.0
2018-Jul-14 09:27N 48°41' W 123°25'0 0.0
2018-Jul-14 09:00N 48°41' W 123°25'0 0.0
2018-Jul-14 08:30N 48°41' W 123°25'0 0.0
2018-Jul-14 07:54N 48°41' W 123°25'0 0.0
2018-Jul-14 07:30N 48°41' W 123°25'0 0.0
2018-Jul-14 07:00N 48°41' W 123°25'0 0.0
2018-Jul-14 06:30N 48°41' W 123°25'0 0.0
2018-Jul-14 06:00N 48°41' W 123°25'0 0.0
2018-Jul-14 05:30N 48°41' W 123°25'5 9.7
2018-Jul-14 05:00N 48°45' W 123°21'917.9
2018-Jul-14 04:30N 48°54' W 123°17'917.3
2018-Jul-14 04:00N 49°00' W 123°08'0 0.0
2018-Jul-14 03:30N 49°00' W 123°08'916.7
2018-Jul-14 02:58N 48°53' W 123°17'614.0
2018-Jul-14 02:30N 48°48' W 123°21'713.3
2018-Jul-14 02:00N 48°41' W 123°25'0 0.3
2018-Jul-14 01:30N 48°41' W 123°25'815.9
2018-Jul-14 01:00N 48°49' W 123°21'815.5
2018-Jul-14 00:30N 48°56' W 123°14'612.6
2018-Jul-14 00:00N 49°00' W 123°08'0 0.1
2018-Jul-13 23:31N 49°00' W 123°08'918.2
2018-Jul-13 23:00N 48°53' W 123°17'816.8
2018-Jul-13 22:30N 48°45' W 123°21'5 9.4
2018-Jul-13 22:01N 48°41' W 123°25'2 3.3
2018-Jul-13 21:30N 48°42' W 123°22'917.5
2018-Jul-13 21:00N 48°51' W 123°21'815.7
2018-Jul-13 20:30N 48°57' W 123°14'510.3
2018-Jul-13 20:00N 49°00' W 123°08'0 0.3
2018-Jul-13 19:30N 49°00' W 123°08'918.0
2018-Jul-13 19:00N 48°53' W 123°17'815.0
2018-Jul-13 18:31N 48°47' W 123°21'611.1
2018-Jul-13 18:00N 48°41' W 123°25'0 0.1
2018-Jul-13 17:31N 48°41' W 123°25'815.9
2018-Jul-13 17:00N 48°49' W 123°20'816.6
2018-Jul-13 16:29N 48°56' W 123°14'611.4
2018-Jul-13 16:00N 49°00' W 123°08'0 0.1
2018-Jul-13 15:30N 49°00' W 123°08'816.6
2018-Jul-13 15:00N 48°54' W 123°16'612.8
2018-Jul-13 14:30N 48°48' W 123°21'7 7.4
2018-Jul-13 13:30N 48°41' W 123°25'0 0.0
2018-Jul-13 12:58N 48°41' W 123°25'0 0.0
2018-Jul-13 12:28N 48°41' W 123°25'0 0.0
2018-Jul-13 11:58N 48°41' W 123°25'0 0.0
2018-Jul-13 11:28N 48°41' W 123°25'0 0.0
2018-Jul-13 10:52N 48°41' W 123°25'0 0.0
2018-Jul-13 10:28N 48°41' W 123°25'0 0.0
2018-Jul-13 09:58N 48°41' W 123°25'0 0.0
2018-Jul-13 09:28N 48°41' W 123°25'0 0.0
2018-Jul-13 08:58N 48°41' W 123°25'0 0.0
2018-Jul-13 08:23N 48°41' W 123°25'0 0.0
2018-Jul-13 07:52N 48°41' W 123°25'0 0.0
2018-Jul-13 07:28N 48°41' W 123°25'0 0.0
2018-Jul-13 06:58N 48°41' W 123°25'0 0.0
2018-Jul-13 06:22N 48°41' W 123°25'0 0.0
2018-Jul-13 05:58N 48°41' W 123°25'0 0.0
2018-Jul-13 05:30N 48°41' W 123°25'713.7
2018-Jul-13 05:00N 48°48' W 123°21'917.1
2018-Jul-13 04:30N 48°55' W 123°15'713.2
2018-Jul-13 04:00N 49°00' W 123°08'2 3.6
2018-Jul-13 03:30N 48°59' W 123°09'918.7
2018-Jul-13 03:00N 48°52' W 123°19'714.1
2018-Jul-13 02:30N 48°45' W 123°22'4 8.1
2018-Jul-13 02:00N 48°41' W 123°25'3 5.1
2018-Jul-13 01:30N 48°43' W 123°21'917.9
2018-Jul-13 01:00N 48°52' W 123°20'612.5
2018-Jul-13 00:30N 48°56' W 123°14'611.1
2018-Jul-13 00:00N 49°00' W 123°08'2 3.2
2018-Jul-12 23:30N 48°59' W 123°09'919.4
2018-Jul-12 23:00N 48°52' W 123°19'713.2
2018-Jul-12 22:30N 48°45' W 123°20'5 9.6
2018-Jul-12 22:00N 48°41' W 123°25'2 3.3
2018-Jul-12 21:30N 48°42' W 123°22'918.3
2018-Jul-12 21:01N 48°51' W 123°21'612.1
2018-Jul-12 20:30N 48°55' W 123°15'711.1
2018-Jul-12 19:54N 49°00' W 123°08'0 0.2
2018-Jul-12 19:29N 49°00' W 123°08'917.5
2018-Jul-12 19:00N 48°54' W 123°16'714.1
2018-Jul-12 18:31N 48°47' W 123°21'713.1
2018-Jul-12 18:00N 48°41' W 123°25'0 0.0
2018-Jul-12 17:31N 48°41' W 123°25'714.6
2018-Jul-12 17:01N 48°48' W 123°21'  
Track history (hours):
 
Tides and Currents Weather Stations Pressure Air Temp Water Temp Dewpoint Dewpoint Depression Visibility Wind Speed Wind Dir Waves Ship Positions

Spirit Of Vi

Last reported at 2018-Jul-22 16:30 UTC. Time now 2018-Jul-22 16:28 UTC.
Position N 48°56' W 123°14'.

Length 168 m; draft 5 m.

Type: Ship. MMSI: 316001269.

Date/timePositionNaut miles runAvg speedWind from/ knotsBaromVisibWave heightAir tempDewpointWater temp
2018-Jul-22 16:30N 48°56' W 123°14'612.0
2018-Jul-22 16:00N 49°00' W 123°08'8 8.3
2018-Jul-22 15:00N 48°54' W 123°16'815.4
2018-Jul-22 14:30N 48°47' W 123°21'612.2
2018-Jul-22 14:00N 48°41' W 123°25'0 0.0
2018-Jul-22 13:30N 48°41' W 123°25'0 0.0
2018-Jul-22 13:00N 48°41' W 123°25'0 0.0
2018-Jul-22 12:30N 48°41' W 123°25'0 0.0
2018-Jul-22 11:49N 48°41' W 123°25'0 0.0
2018-Jul-22 11:28N 48°41' W 123°25'0 0.0
2018-Jul-22 10:58N 48°41' W 123°25'0 0.0
2018-Jul-22 10:25N 48°41' W 123°25'0 0.0
2018-Jul-22 09:52N 48°41' W 123°25'0 0.0
2018-Jul-22 09:22N 48°41' W 123°25'0 0.0
2018-Jul-22 08:58N 48°41' W 123°25'0 0.0
2018-Jul-22 08:28N 48°41' W 123°25'0 0.0
2018-Jul-22 07:58N 48°41' W 123°25'0 0.0
2018-Jul-22 07:28N 48°41' W 123°25'0 0.0
2018-Jul-22 06:58N 48°41' W 123°25'0 0.0
2018-Jul-22 06:28N 48°41' W 123°25'0 0.0
2018-Jul-22 05:58N 48°41' W 123°25'0 0.0
2018-Jul-22 05:29N 48°41' W 123°25'613.8
2018-Jul-22 05:00N 48°47' W 123°21'815.4
2018-Jul-22 04:30N 48°55' W 123°17'816.0
2018-Jul-22 04:00N 49°00' W 123°08'0 0.3
2018-Jul-22 03:30N 49°00' W 123°08'1018.2
2018-Jul-22 02:59N 48°53' W 123°18'613.4
2018-Jul-22 02:31N 48°47' W 123°21'612.0
2018-Jul-22 02:00N 48°41' W 123°25'0 0.1
2018-Jul-22 01:30N 48°41' W 123°25'816.1
2018-Jul-22 01:00N 48°49' W 123°20'815.6
2018-Jul-22 00:28N 48°56' W 123°14'610.5
2018-Jul-21 23:56N 49°00' W 123°08'2 4.0
2018-Jul-21 23:30N 48°59' W 123°09'1018.0
2018-Jul-21 22:57N 48°51' W 123°19'714.7
2018-Jul-21 22:30N 48°45' W 123°22'4 8.0
2018-Jul-21 21:59N 48°41' W 123°25'2 4.5
2018-Jul-21 21:30N 48°42' W 123°22'918.9
2018-Jul-21 21:00N 48°52' W 123°21'918.4
2018-Jul-21 20:30N 48°58' W 123°11'3 3.2
2018-Jul-21 19:40N 49°00' W 123°08'0 0.6
2018-Jul-21 19:30N 49°00' W 123°08'918.2
2018-Jul-21 19:00N 48°53' W 123°17'815.5
2018-Jul-21 18:30N 48°46' W 123°21'510.5
2018-Jul-21 18:01N 48°41' W 123°25'0 0.1
2018-Jul-21 17:31N 48°41' W 123°25'815.3
2018-Jul-21 17:00N 48°49' W 123°21'714.6
2018-Jul-21 16:30N 48°55' W 123°15'7 7.1
2018-Jul-21 15:30N 49°00' W 123°08'714.6
2018-Jul-21 15:00N 48°54' W 123°15'714.9
2018-Jul-21 14:30N 48°48' W 123°21'714.6
2018-Jul-21 14:00N 48°41' W 123°25'0 0.2
2018-Jul-21 13:30N 48°41' W 123°25'0 0.0
2018-Jul-21 12:54N 48°41' W 123°25'0 0.0
2018-Jul-21 12:24N 48°41' W 123°25'0 0.0
2018-Jul-21 11:57N 48°41' W 123°25'0 0.0
2018-Jul-21 11:30N 48°41' W 123°25'0 0.0
2018-Jul-21 11:00N 48°41' W 123°25'0 0.0
2018-Jul-21 10:30N 48°41' W 123°25'0 0.0
2018-Jul-21 09:54N 48°41' W 123°25'0 0.0
2018-Jul-21 09:30N 48°41' W 123°25'0 0.0
2018-Jul-21 08:57N 48°41' W 123°25'0 0.0
2018-Jul-21 08:27N 48°41' W 123°25'0 0.0
2018-Jul-21 07:54N 48°41' W 123°25'0 0.0
2018-Jul-21 07:27N 48°41' W 123°25'0 0.0
2018-Jul-21 07:00N 48°41' W 123°25'0 0.0
2018-Jul-21 06:27N 48°41' W 123°25'0 0.0
2018-Jul-21 06:00N 48°41' W 123°25'1 2.6
2018-Jul-21 05:31N 48°42' W 123°23'917.9
2018-Jul-21 05:00N 48°51' W 123°21'815.8
2018-Jul-21 04:30N 48°57' W 123°13'5 9.9
2018-Jul-21 03:59N 49°00' W 123°08'3 6.2
2018-Jul-21 03:30N 48°58' W 123°09'918.3
2018-Jul-21 03:00N 48°51' W 123°20'815.9
2018-Jul-21 02:30N 48°44' W 123°24'3 5.6
2018-Jul-21 02:00N 48°41' W 123°25'3 5.7
2018-Jul-21 01:30N 48°43' W 123°21'917.0
2018-Jul-21 00:59N 48°52' W 123°19'817.0
2018-Jul-21 00:30N 48°58' W 123°11'3 6.5
2018-Jul-20 23:59N 49°00' W 123°08'0 0.3
2018-Jul-20 23:30N 49°00' W 123°08'917.8
2018-Jul-20 22:59N 48°53' W 123°17'713.8
2018-Jul-20 22:30N 48°47' W 123°21'612.5
2018-Jul-20 22:00N 48°41' W 123°25'0 0.0
2018-Jul-20 21:30N 48°41' W 123°25'612.8
2018-Jul-20 21:00N 48°47' W 123°21'916.7
2018-Jul-20 20:30N 48°55' W 123°16'7 8.5
2018-Jul-20 19:38N 49°00' W 123°08'0 0.4
2018-Jul-20 19:27N 49°00' W 123°08'817.3
2018-Jul-20 19:01N 48°55' W 123°15'816.4
2018-Jul-20 18:30N 48°47' W 123°21'612.3
2018-Jul-20 18:00N 48°41' W 123°25'0 0.8
2018-Jul-20 17:30N 48°42' W 123°24'815.7
2018-Jul-20 17:01N 48°49' W 123°21'713.4
2018-Jul-20 16:30N 48°55' W 123°16'715.0
2018-Jul-20 16:00N 49°00' W 123°08'0 0.0
2018-Jul-20 15:29N 49°00' W 123°08'815.8
2018-Jul-20 15:00N 48°54' W 123°15'714.2
2018-Jul-20 14:31N 48°48' W 123°21'714.8
2018-Jul-20 14:00N 48°41' W 123°25'0 0.0
2018-Jul-20 13:28N 48°41' W 123°25'0 0.0
2018-Jul-20 12:58N 48°41' W 123°25'0 0.0
2018-Jul-20 12:28N 48°41' W 123°25'0 0.0
2018-Jul-20 11:58N 48°41' W 123°25'0 0.0
2018-Jul-20 11:28N 48°41' W 123°25'0 0.0
2018-Jul-20 10:58N 48°41' W 123°25'0 0.0
2018-Jul-20 10:22N 48°41' W 123°25'0 0.0
2018-Jul-20 09:58N 48°41' W 123°25'0 0.0
2018-Jul-20 09:28N 48°41' W 123°25'0 0.0
2018-Jul-20 08:58N 48°41' W 123°25'0 0.0
2018-Jul-20 07:58N 48°41' W 123°25'0 0.0
2018-Jul-20 07:28N 48°41' W 123°25'0 0.0
2018-Jul-20 06:58N 48°41' W 123°25'0 0.0
2018-Jul-20 06:28N 48°41' W 123°25'0 0.0
2018-Jul-20 05:58N 48°41' W 123°25'2 4.2
2018-Jul-20 05:30N 48°42' W 123°22'918.7
2018-Jul-20 05:00N 48°51' W 123°21'917.6
2018-Jul-20 04:30N 48°58' W 123°12'4 5.1
2018-Jul-20 03:48N 49°00' W 123°08'516.4
2018-Jul-20 03:30N 48°56' W 123°12'816.8
2018-Jul-20 03:01N 48°51' W 123°21'816.2
2018-Jul-20 02:30N 48°43' W 123°26'2 3.5
2018-Jul-20 02:00N 48°41' W 123°25'4 7.7
2018-Jul-20 01:30N 48°44' W 123°21'814.7
2018-Jul-20 00:59N 48°52' W 123°19'714.7
2018-Jul-20 00:29N 48°58' W 123°12'4 4.6
2018-Jul-19 23:39N 49°00' W 123°08'0 1.4
2018-Jul-19 23:29N 49°00' W 123°08'918.6
2018-Jul-19 23:00N 48°53' W 123°17'715.0
2018-Jul-19 22:30N 48°46' W 123°21'511.0
2018-Jul-19 22:00N 48°41' W 123°25'0 0.6
2018-Jul-19 21:30N 48°42' W 123°24'917.1
2018-Jul-19 21:00N 48°50' W 123°21'917.1
2018-Jul-19 20:29N 48°57' W 123°13'5 9.3
2018-Jul-19 19:59N 49°00' W 123°08'0 0.8
2018-Jul-19 19:29N 49°00' W 123°08'918.3
2018-Jul-19 18:59N 48°53' W 123°17'715.5
2018-Jul-19 18:30N 48°46' W 123°21'510.7
2018-Jul-19 18:00N 48°41' W 123°25'0 0.2
2018-Jul-19 17:30N 48°41' W 123°25'815.2
2018-Jul-19 17:01N 48°49' W 123°21'815.3
2018-Jul-19 16:28N 48°56' W 123°15'6 9.5
2018-Jul-19 15:48N 49°00' W 123°08'0 0.2
2018-Jul-19 15:28N 49°00' W 123°08'816.3
2018-Jul-19 15:00N 48°54' W 123°15'714.9
2018-Jul-19 14:30N 48°48' W 123°21'7 7.1
2018-Jul-19 13:30N 48°41' W 123°25'0 0.0
2018-Jul-19 13:00N 48°41' W 123°25'0 0.0
2018-Jul-19 12:30N 48°41' W 123°25'0 0.0
2018-Jul-19 12:00N 48°41' W 123°25'0 0.0
2018-Jul-19 11:30N 48°41' W 123°25'0 0.0
2018-Jul-19 11:00N 48°41' W 123°25'0 0.0
2018-Jul-19 10:27N 48°41' W 123°25'0 0.0
2018-Jul-19 10:00N 48°41' W 123°25'0 0.0
2018-Jul-19 09:30N 48°41' W 123°25'0 0.0
2018-Jul-19 09:00N 48°41' W 123°25'0 0.0
2018-Jul-19 08:30N 48°41' W 123°25'0 0.0
2018-Jul-19 08:00N 48°41' W 123°25'0 0.0
2018-Jul-19 07:30N 48°41' W 123°25'0 0.0
2018-Jul-19 07:00N 48°41' W 123°25'0 0.0
2018-Jul-19 06:30N 48°41' W 123°25'0 0.0
2018-Jul-19 06:00N 48°41' W 123°25'0 0.1
2018-Jul-19 05:30N 48°41' W 123°25'714.1
2018-Jul-19 05:01N 48°48' W 123°21'714.3
2018-Jul-19 04:30N 48°55' W 123°17'815.3
2018-Jul-19 03:59N 49°00' W 123°08'0 0.1
2018-Jul-19 03:30N 49°00' W 123°08'815.3
2018-Jul-19 03:00N 48°54' W 123°15'815.4
2018-Jul-19 02:30N 48°48' W 123°21'713.6
2018-Jul-19 02:00N 48°41' W 123°25'0 0.6
2018-Jul-19 01:30N 48°41' W 123°24'816.4
2018-Jul-19 01:00N 48°49' W 123°21'713.4
2018-Jul-19 00:30N 48°55' W 123°16'714.1
2018-Jul-19 00:00N 49°00' W 123°08'0 0.1
2018-Jul-18 23:30N 49°00' W 123°08'816.7
2018-Jul-18 23:00N 48°54' W 123°16'815.2
2018-Jul-18 22:30N 48°47' W 123°21'611.7
2018-Jul-18 21:59N 48°41' W 123°25'0 0.0
2018-Jul-18 21:30N 48°41' W 123°25'714.9
2018-Jul-18 21:00N 48°48' W 123°21'816.3
2018-Jul-18 20:30N 48°56' W 123°15'712.8
2018-Jul-18 19:59N 49°00' W 123°08'0 0.1
2018-Jul-18 19:30N 49°00' W 123°08'816.3
2018-Jul-18 19:00N 48°54' W 123°16'714.5
2018-Jul-18 18:30N 48°47' W 123°21'713.3
2018-Jul-18 18:00N 48°41' W 123°25'0 0.7
2018-Jul-18 17:31N 48°42' W 123°24'816.1
2018-Jul-18 17:00N 48°49' W 123°21'815.8
2018-Jul-18 16:30N 48°56' W 123°14'611.5
2018-Jul-18 15:59N 49°00' W 123°08'0 0.0
2018-Jul-18 15:26N 49°00' W 123°08'715.9
2018-Jul-18 15:00N 48°55' W 123°15'816.0
2018-Jul-18 14:30N 48°48' W 123°21'7 7.1
2018-Jul-18 13:30N 48°41' W 123°25'0 0.0
2018-Jul-18 13:00N 48°41' W 123°25'0 0.0
2018-Jul-18 12:29N 48°41' W 123°25'0 0.0
2018-Jul-18 11:59N 48°41' W 123°25'0 0.0
2018-Jul-18 11:29N 48°41' W 123°25'0 0.0
2018-Jul-18 10:29N 48°41' W 123°25'0 0.0
2018-Jul-18 09:59N 48°41' W 123°25'0 0.0
2018-Jul-18 09:29N 48°41' W 123°25'0 0.0
2018-Jul-18 08:59N 48°41' W 123°25'0 0.0
2018-Jul-18 08:29N 48°41' W 123°25'0 0.0
2018-Jul-18 07:59N 48°41' W 123°25'0 0.0
2018-Jul-18 07:29N 48°41' W 123°25'0 0.0
2018-Jul-18 06:59N 48°41' W 123°25'0 0.0
2018-Jul-18 06:29N 48°41' W 123°25'0 0.0
2018-Jul-18 05:59N 48°41' W 123°25'0 0.0
2018-Jul-18 05:31N 48°41' W 123°25'714.1
2018-Jul-18 05:00N 48°48' W 123°20'714.5
2018-Jul-18 04:30N 48°55' W 123°16'815.7
2018-Jul-18 04:00N 49°00' W 123°08'0 0.2
2018-Jul-18 03:30N 49°00' W 123°08'918.2
2018-Jul-18 02:59N 48°53' W 123°17'816.4
2018-Jul-18 02:30N 48°46' W 123°22'5 9.7
2018-Jul-18 02:01N 48°41' W 123°25'3 5.7
2018-Jul-18 01:30N 48°43' W 123°21'917.3
2018-Jul-18 01:00N 48°52' W 123°21'612.3
2018-Jul-18 00:30N 48°57' W 123°16'6 8.5
2018-Jul-17 23:46N 49°00' W 123°08'0 1.0
2018-Jul-17 23:29N 49°00' W 123°08'918.3
2018-Jul-17 22:58N 48°53' W 123°18'612.4
2018-Jul-17 22:30N 48°48' W 123°21'713.5
2018-Jul-17 22:01N 48°41' W 123°25'0 0.0
2018-Jul-17 21:30N 48°41' W 123°25'815.5
2018-Jul-17 21:00N 48°49' W 123°21'816.3
2018-Jul-17 20:29N 48°56' W 123°14'612.2
2018-Jul-17 20:00N 49°00' W 123°08'0 0.0
2018-Jul-17 19:30N 49°00' W 123°08'816.2
2018-Jul-17 19:00N 48°54' W 123°16'714.0
2018-Jul-17 18:30N 48°48' W 123°21'714.1
2018-Jul-17 18:01N 48°41' W 123°25'0 0.0
2018-Jul-17 17:31N 48°41' W 123°25'713.8
2018-Jul-17 17:00N 48°48' W 123°21'816.9
2018-Jul-17 16:30N 48°56' W 123°16'7 7.4
2018-Jul-17 15:34N 49°00' W 123°08'0 0.1
2018-Jul-17 15:29N 49°00' W 123°08'815.7
2018-Jul-17 15:00N 48°54' W 123°15'815.6
2018-Jul-17 14:30N 48°48' W 123°21'713.4
2018-Jul-17 14:01N 48°41' W 123°25'0 0.0
2018-Jul-17 13:28N 48°41' W 123°25'0 0.0
2018-Jul-17 12:58N 48°41' W 123°25'0 0.0
2018-Jul-17 12:28N 48°41' W 123°25'0 0.0
2018-Jul-17 11:58N 48°41' W 123°25'0 0.0
2018-Jul-17 11:28N 48°41' W 123°25'0 0.0
2018-Jul-17 10:58N 48°41' W 123°25'0 0.0
2018-Jul-17 10:28N 48°41' W 123°25'0 0.0
2018-Jul-17 09:49N 48°41' W 123°25'0 0.0
2018-Jul-17 09:28N 48°41' W 123°25'0 0.0
2018-Jul-17 08:58N 48°41' W 123°25'0 0.0
2018-Jul-17 08:28N 48°41' W 123°25'0 0.0
2018-Jul-17 07:58N 48°41' W 123°25'0 0.0
2018-Jul-17 07:25N 48°41' W 123°25'0 0.0
2018-Jul-17 06:58N 48°41' W 123°25'0 0.0
2018-Jul-17 06:28N 48°41' W 123°25'0 0.0
2018-Jul-17 05:58N 48°41' W 123°25'0 0.0
2018-Jul-17 05:28N 48°41' W 123°25'510.1
2018-Jul-17 05:00N 48°45' W 123°21'916.8
2018-Jul-17 04:30N 48°54' W 123°17'918.4
2018-Jul-17 04:00N 49°00' W 123°08'0 0.3
2018-Jul-17 03:30N 49°00' W 123°08'612.6
2018-Jul-17 03:00N 48°55' W 123°14'815.5
2018-Jul-17 02:30N 48°49' W 123°20'816.4
2018-Jul-17 02:00N 48°41' W 123°25'0 0.8
2018-Jul-17 01:29N 48°41' W 123°24'816.7
2018-Jul-17 01:00N 48°49' W 123°21'714.3
2018-Jul-17 00:30N 48°56' W 123°15'7 6.8
2018-Jul-16 23:30N 49°00' W 123°08'918.6
2018-Jul-16 23:00N 48°53' W 123°17'714.5
2018-Jul-16 22:31N 48°46' W 123°21'611.2
2018-Jul-16 22:00N 48°41' W 123°25'1 2.3
2018-Jul-16 21:31N 48°42' W 123°23'1019.1
2018-Jul-16 21:00N 48°51' W 123°21'917.8
2018-Jul-16 20:31N 48°58' W 123°12'4 7.2
2018-Jul-16 19:59N 49°00' W 123°08'1 2.2
2018-Jul-16 19:30N 48°60' W 123°09'1017.8
2018-Jul-16 18:56N 48°52' W 123°19'512.3
2018-Jul-16 18:30N 48°47' W 123°21'611.5
2018-Jul-16 18:00N 48°41' W 123°25'0 0.0
2018-Jul-16 17:30N 48°41' W 123°25'714.9
2018-Jul-16 17:01N 48°48' W 123°20'714.9
2018-Jul-16 16:31N 48°55' W 123°16'714.6
2018-Jul-16 16:00N 49°00' W 123°08'0 0.0
2018-Jul-16 15:30N 49°00' W 123°08'815.2
2018-Jul-16 15:00N 48°54' W 123°15'714.6
2018-Jul-16 14:30N 48°48' W 123°21'714.4
2018-Jul-16 14:01N 48°41' W 123°25'0 0.0
2018-Jul-16 13:31N 48°41' W 123°25'0 0.0
2018-Jul-16 12:58N 48°41' W 123°25'0 0.0
2018-Jul-16 12:28N 48°41' W 123°25'0 0.0
2018-Jul-16 11:58N 48°41' W 123°25'0 0.0
2018-Jul-16 11:25N 48°41' W 123°25'0 0.0
2018-Jul-16 10:58N 48°41' W 123°25'0 0.0
2018-Jul-16 10:28N 48°41' W 123°25'0 0.0
2018-Jul-16 09:58N 48°41' W 123°25'0 0.0
2018-Jul-16 09:28N 48°41' W 123°25'0 0.0
2018-Jul-16 08:58N 48°41' W 123°25'0 0.0
2018-Jul-16 08:28N 48°41' W 123°25'0 0.0
2018-Jul-16 07:58N 48°41' W 123°25'0 0.0
2018-Jul-16 07:28N 48°41' W 123°25'0 0.0
2018-Jul-16 06:58N 48°41' W 123°25'0 0.0
2018-Jul-16 06:28N 48°41' W 123°25'0 0.0
2018-Jul-16 05:58N 48°41' W 123°25'3 6.9
2018-Jul-16 05:31N 48°43' W 123°21'917.0
2018-Jul-16 05:00N 48°52' W 123°19'817.0
2018-Jul-16 04:30N 48°58' W 123°11'3 5.5
2018-Jul-16 04:00N 49°00' W 123°08'4 8.4
2018-Jul-16 03:30N 48°57' W 123°12'816.7
2018-Jul-16 03:00N 48°51' W 123°21'917.1
2018-Jul-16 02:31N 48°43' W 123°21'3 5.4
2018-Jul-16 02:01N 48°41' W 123°25'2 3.6
2018-Jul-16 01:31N 48°42' W 123°22'917.8
2018-Jul-16 01:01N 48°51' W 123°21'815.4
2018-Jul-16 00:30N 48°57' W 123°14'5 9.9
2018-Jul-15 23:58N 49°00' W 123°08'1 1.8
2018-Jul-15 23:30N 48°60' W 123°09'1020.2
2018-Jul-15 23:01N 48°52' W 123°18'917.1
2018-Jul-15 22:29N 48°43' W 123°21'3 6.3
2018-Jul-15 22:00N 48°41' W 123°25'2 4.0
2018-Jul-15 21:30N 48°42' W 123°22'1018.9
2018-Jul-15 21:00N 48°52' W 123°21'816.7
2018-Jul-15 20:30N 48°58' W 123°12'4 7.5
2018-Jul-15 19:59N 49°00' W 123°08'1 1.3
2018-Jul-15 19:30N 48°60' W 123°09'1018.8
2018-Jul-15 19:00N 48°53' W 123°18'713.7
2018-Jul-15 18:30N 48°46' W 123°22'510.7
2018-Jul-15 18:00N 48°41' W 123°25'0 0.0
2018-Jul-15 17:31N 48°41' W 123°25'713.7
2018-Jul-15 16:59N 48°48' W 123°21'817.3
2018-Jul-15 16:30N 48°55' W 123°15'713.5
2018-Jul-15 16:00N 49°00' W 123°08'0 0.1
2018-Jul-15 15:30N 49°00' W 123°08'916.5
2018-Jul-15 14:59N 48°54' W 123°16'714.0
2018-Jul-15 14:28N 48°47' W 123°21'613.7
2018-Jul-15 14:01N 48°41' W 123°25'0 0.0
2018-Jul-15 13:30N 48°41' W 123°25'0 0.0
2018-Jul-15 12:59N 48°41' W 123°25'0 0.0
2018-Jul-15 12:29N 48°41' W 123°25'0 0.0
2018-Jul-15 11:59N 48°41' W 123°25'0 0.0
2018-Jul-15 11:29N 48°41' W 123°25'0 0.0
2018-Jul-15 10:59N 48°41' W 123°25'0 0.0
2018-Jul-15 10:29N 48°41' W 123°25'0 0.0
2018-Jul-15 09:59N 48°41' W 123°25'0 0.0
2018-Jul-15 09:29N 48°41' W 123°25'0 0.0
2018-Jul-15 08:59N 48°41' W 123°25'0 0.0
2018-Jul-15 08:29N 48°41' W 123°25'0 0.0
2018-Jul-15 07:32N 48°41' W 123°25'0 0.0
2018-Jul-15 07:29N 48°41' W 123°25'0 0.0
2018-Jul-15 06:59N 48°41' W 123°25'0 0.0
2018-Jul-15 06:29N 48°41' W 123°25'0 0.0
2018-Jul-15 05:59N 48°41' W 123°25'0 0.0
2018-Jul-15 05:29N 48°41' W 123°25'713.9
2018-Jul-15 05:00N 48°48' W 123°21'917.6
2018-Jul-15 04:30N 48°56' W 123°15'713.3
2018-Jul-15 04:00N 49°00' W 123°08'3 6.7
2018-Jul-15 03:30N 48°58' W 123°11'917.3
2018-Jul-15 03:00N 48°52' W 123°20'917.8
2018-Jul-15 02:30N 48°43' W 123°21'3 5.1
2018-Jul-15 02:00N 48°41' W 123°25'5 9.3
2018-Jul-15 01:31N 48°45' W 123°21'815.1
2018-Jul-15 00:59N 48°53' W 123°18'919.6
2018-Jul-15 00:30N 49°00' W 123°09'1 1.1
2018-Jul-15 00:00N 49°00' W 123°08'714.1
2018-Jul-14 23:30N 48°55' W 123°15'816.1
2018-Jul-14 23:00N 48°48' W 123°20'714.0
2018-Jul-14 22:30N 48°41' W 123°25'0 0.2
2018-Jul-14 22:01N 48°41' W 123°25'815.8
2018-Jul-14 21:31N 48°49' W 123°21'714.4
2018-Jul-14 21:00N 48°55' W 123°16'714.1
2018-Jul-14 20:30N 49°00' W 123°08'0 0.0
2018-Jul-14 20:00N 49°00' W 123°08'3 6.5
2018-Jul-14 19:30N 48°58' W 123°11'917.5
2018-Jul-14 19:00N 48°52' W 123°20'816.0
2018-Jul-14 18:30N 48°44' W 123°24'3 5.4
2018-Jul-14 18:00N 48°41' W 123°25'0 0.3
2018-Jul-14 17:30N 48°41' W 123°25'917.3
2018-Jul-14 17:01N 48°50' W 123°21'917.2
2018-Jul-14 16:30N 48°57' W 123°13'5 9.8
2018-Jul-14 16:00N 49°00' W 123°08'0 0.4
2018-Jul-14 15:31N 49°00' W 123°08'917.2
2018-Jul-14 15:00N 48°53' W 123°16'1313.2
2018-Jul-14 14:01N 48°41' W 123°25'0 0.0
2018-Jul-14 13:31N 48°41' W 123°25'0 0.0
2018-Jul-14 13:01N 48°41' W 123°25'0 0.0
2018-Jul-14 12:30N 48°41' W 123°25'0 0.0
2018-Jul-14 11:54N 48°41' W 123°25'0 0.0
2018-Jul-14 11:30N 48°41' W 123°25'0 0.0
2018-Jul-14 11:00N 48°41' W 123°25'0 0.0
2018-Jul-14 10:30N 48°41' W 123°25'0 0.0
2018-Jul-14 09:57N 48°41' W 123°25'0 0.0
2018-Jul-14 09:27N 48°41' W 123°25'0 0.0
2018-Jul-14 09:00N 48°41' W 123°25'0 0.0
2018-Jul-14 08:30N 48°41' W 123°25'0 0.0
2018-Jul-14 07:54N 48°41' W 123°25'0 0.0
2018-Jul-14 07:30N 48°41' W 123°25'0 0.0
2018-Jul-14 07:00N 48°41' W 123°25'0 0.0
2018-Jul-14 06:30N 48°41' W 123°25'0 0.0
2018-Jul-14 06:00N 48°41' W 123°25'0 0.0
2018-Jul-14 05:30N 48°41' W 123°25'5 9.7
2018-Jul-14 05:00N 48°45' W 123°21'917.9
2018-Jul-14 04:30N 48°54' W 123°17'917.3
2018-Jul-14 04:00N 49°00' W 123°08'0 0.0
2018-Jul-14 03:30N 49°00' W 123°08'916.7
2018-Jul-14 02:58N 48°53' W 123°17'614.0
2018-Jul-14 02:30N 48°48' W 123°21'713.3
2018-Jul-14 02:00N 48°41' W 123°25'0 0.3
2018-Jul-14 01:30N 48°41' W 123°25'815.9
2018-Jul-14 01:00N 48°49' W 123°21'815.5
2018-Jul-14 00:30N 48°56' W 123°14'612.6
2018-Jul-14 00:00N 49°00' W 123°08'0 0.1
2018-Jul-13 23:31N 49°00' W 123°08'918.2
2018-Jul-13 23:00N 48°53' W 123°17'816.8
2018-Jul-13 22:30N 48°45' W 123°21'5 9.4
2018-Jul-13 22:01N 48°41' W 123°25'2 3.3
2018-Jul-13 21:30N 48°42' W 123°22'917.5
2018-Jul-13 21:00N 48°51' W 123°21'815.7
2018-Jul-13 20:30N 48°57' W 123°14'510.3
2018-Jul-13 20:00N 49°00' W 123°08'0 0.3
2018-Jul-13 19:30N 49°00' W 123°08'918.0
2018-Jul-13 19:00N 48°53' W 123°17'815.0
2018-Jul-13 18:31N 48°47' W 123°21'611.1
2018-Jul-13 18:00N 48°41' W 123°25'0 0.1
2018-Jul-13 17:31N 48°41' W 123°25'815.9
2018-Jul-13 17:00N 48°49' W 123°20'816.6
2018-Jul-13 16:29N 48°56' W 123°14'611.4
2018-Jul-13 16:00N 49°00' W 123°08'0 0.1
2018-Jul-13 15:30N 49°00' W 123°08'816.6
2018-Jul-13 15:00N 48°54' W 123°16'612.8
2018-Jul-13 14:30N 48°48' W 123°21'7 7.4
2018-Jul-13 13:30N 48°41' W 123°25'0 0.0
2018-Jul-13 12:58N 48°41' W 123°25'0 0.0
2018-Jul-13 12:28N 48°41' W 123°25'0 0.0
2018-Jul-13 11:58N 48°41' W 123°25'0 0.0
2018-Jul-13 11:28N 48°41' W 123°25'0 0.0
2018-Jul-13 10:52N 48°41' W 123°25'0 0.0
2018-Jul-13 10:28N 48°41' W 123°25'0 0.0
2018-Jul-13 09:58N 48°41' W 123°25'0 0.0
2018-Jul-13 09:28N 48°41' W 123°25'0 0.0
2018-Jul-13 08:58N 48°41' W 123°25'0 0.0
2018-Jul-13 08:23N 48°41' W 123°25'0 0.0
2018-Jul-13 07:52N 48°41' W 123°25'0 0.0
2018-Jul-13 07:28N 48°41' W 123°25'0 0.0
2018-Jul-13 06:58N 48°41' W 123°25'0 0.0
2018-Jul-13 06:22N 48°41' W 123°25'0 0.0
2018-Jul-13 05:58N 48°41' W 123°25'0 0.0
2018-Jul-13 05:30N 48°41' W 123°25'713.7
2018-Jul-13 05:00N 48°48' W 123°21'917.1
2018-Jul-13 04:30N 48°55' W 123°15'713.2
2018-Jul-13 04:00N 49°00' W 123°08'2 3.6
2018-Jul-13 03:30N 48°59' W 123°09'918.7
2018-Jul-13 03:00N 48°52' W 123°19'714.1
2018-Jul-13 02:30N 48°45' W 123°22'4 8.1
2018-Jul-13 02:00N 48°41' W 123°25'3 5.1
2018-Jul-13 01:30N 48°43' W 123°21'917.9
2018-Jul-13 01:00N 48°52' W 123°20'612.5
2018-Jul-13 00:30N 48°56' W 123°14'611.1
2018-Jul-13 00:00N 49°00' W 123°08'2 3.2
2018-Jul-12 23:30N 48°59' W 123°09'919.4
2018-Jul-12 23:00N 48°52' W 123°19'713.2
2018-Jul-12 22:30N 48°45' W 123°20'5 9.6
2018-Jul-12 22:00N 48°41' W 123°25'2 3.3
2018-Jul-12 21:30N 48°42' W 123°22'918.3
2018-Jul-12 21:01N 48°51' W 123°21'612.1
2018-Jul-12 20:30N 48°55' W 123°15'711.1
2018-Jul-12 19:54N 49°00' W 123°08'0 0.2
2018-Jul-12 19:29N 49°00' W 123°08'917.5
2018-Jul-12 19:00N 48°54' W 123°16'714.1
2018-Jul-12 18:31N 48°47' W 123°21'713.1
2018-Jul-12 18:00N 48°41' W 123°25'0 0.0
2018-Jul-12 17:31N 48°41' W 123°25'714.6
2018-Jul-12 17:01N 48°48' W 123°21'  

Dump ship's entire track history